sensor_id;sensor_type;location;lat;lon;timestamp;P1;durP1;ratioP1;P2;durP2;ratioP2
15331;SDS011;7766;51.534;6.722;2024-01-25T13:29:04;34.53;;;14.17;;
15331;SDS011;7766;51.534;6.722;2024-01-25T13:31:30;38.33;;;13.87;;
15331;SDS011;7766;51.534;6.722;2024-01-25T13:33:55;46.23;;;13.97;;
15331;SDS011;7766;51.534;6.722;2024-01-25T13:36:21;40.17;;;13.93;;
15331;SDS011;7766;51.534;6.722;2024-01-25T13:38:47;34.00;;;12.23;;
15331;SDS011;7766;51.534;6.722;2024-01-25T13:41:13;39.60;;;13.80;;
15331;SDS011;7766;51.534;6.722;2024-01-25T13:43:38;40.20;;;13.57;;
15331;SDS011;7766;51.534;6.722;2024-01-25T13:46:04;32.80;;;13.37;;
15331;SDS011;7766;51.534;6.722;2024-01-25T13:48:30;36.03;;;13.70;;
15331;SDS011;7766;51.534;6.722;2024-01-25T13:50:55;40.97;;;13.27;;
15331;SDS011;7766;51.534;6.722;2024-01-25T13:53:21;43.43;;;12.67;;
15331;SDS011;7766;51.534;6.722;2024-01-25T13:55:47;33.90;;;12.50;;
15331;SDS011;7766;51.534;6.722;2024-01-25T13:58:13;45.10;;;13.23;;
15331;SDS011;7766;51.534;6.722;2024-01-25T14:00:39;33.97;;;12.47;;
15331;SDS011;7766;51.534;6.722;2024-01-25T14:03:04;41.50;;;14.13;;
15331;SDS011;7766;51.534;6.722;2024-01-25T14:05:30;41.17;;;13.30;;
15331;SDS011;7766;51.534;6.722;2024-01-25T14:07:55;35.83;;;14.03;;
15331;SDS011;7766;51.534;6.722;2024-01-25T14:10:21;34.93;;;13.13;;
15331;SDS011;7766;51.534;6.722;2024-01-25T14:12:47;29.27;;;11.93;;
15331;SDS011;7766;51.534;6.722;2024-01-25T14:15:13;35.60;;;12.67;;
15331;SDS011;7766;51.534;6.722;2024-01-25T14:17:39;34.97;;;13.60;;
15331;SDS011;7766;51.534;6.722;2024-01-25T14:20:05;42.33;;;12.83;;
15331;SDS011;7766;51.534;6.722;2024-01-25T14:22:31;36.73;;;12.93;;
15331;SDS011;7766;51.534;6.722;2024-01-25T14:24:57;40.63;;;13.80;;
15331;SDS011;7766;51.534;6.722;2024-01-25T14:27:22;35.13;;;12.93;;
15331;SDS011;7766;51.534;6.722;2024-01-25T14:29:48;40.47;;;14.30;;
15331;SDS011;7766;51.534;6.722;2024-01-25T14:32:13;46.40;;;14.67;;
15331;SDS011;7766;51.534;6.722;2024-01-25T14:34:39;46.37;;;15.30;;
15331;SDS011;7766;51.534;6.722;2024-01-25T14:37:05;38.03;;;12.90;;
15331;SDS011;7766;51.534;6.722;2024-01-25T14:39:32;41.07;;;13.77;;
15331;SDS011;7766;51.534;6.722;2024-01-25T14:41:58;42.47;;;14.67;;
15331;SDS011;7766;51.534;6.722;2024-01-25T14:44:23;41.30;;;14.47;;
15331;SDS011;7766;51.534;6.722;2024-01-25T14:46:49;44.90;;;14.63;;
15331;SDS011;7766;51.534;6.722;2024-01-25T14:49:15;37.13;;;13.97;;
15331;SDS011;7766;51.534;6.722;2024-01-25T14:51:41;37.77;;;14.53;;
15331;SDS011;7766;51.534;6.722;2024-01-25T14:54:07;43.03;;;15.40;;
15331;SDS011;7766;51.534;6.722;2024-01-25T14:56:33;38.10;;;14.97;;
15331;SDS011;7766;51.534;6.722;2024-01-25T14:58:59;34.83;;;13.43;;
15331;SDS011;7766;51.534;6.722;2024-01-25T15:01:24;34.07;;;13.40;;
15331;SDS011;7766;51.534;6.722;2024-01-25T15:03:54;44.13;;;14.07;;
15331;SDS011;7766;51.534;6.722;2024-01-25T15:06:20;34.73;;;13.87;;
15331;SDS011;7766;51.534;6.722;2024-01-25T15:08:46;42.00;;;14.13;;
15331;SDS011;7766;51.534;6.722;2024-01-25T15:11:12;41.80;;;13.23;;
15331;SDS011;7766;51.534;6.722;2024-01-25T15:13:38;44.27;;;14.90;;
15331;SDS011;7766;51.534;6.722;2024-01-25T15:16:04;36.27;;;13.27;;
15331;SDS011;7766;51.534;6.722;2024-01-25T15:18:30;35.00;;;12.67;;
15331;SDS011;7766;51.534;6.722;2024-01-25T15:20:56;36.60;;;12.13;;
15331;SDS011;7766;51.534;6.722;2024-01-25T15:23:22;31.13;;;11.83;;
15331;SDS011;7766;51.534;6.722;2024-01-25T15:25:48;31.50;;;11.67;;
15331;SDS011;7766;51.534;6.722;2024-01-25T15:28:15;39.53;;;11.93;;
15331;SDS011;7766;51.534;6.722;2024-01-25T15:30:41;36.53;;;11.87;;
15331;SDS011;7766;51.534;6.722;2024-01-25T15:33:06;30.83;;;10.93;;
15331;SDS011;7766;51.534;6.722;2024-01-25T15:35:32;37.93;;;12.17;;
15331;SDS011;7766;51.534;6.722;2024-01-25T15:37:59;37.20;;;11.13;;
15331;SDS011;7766;51.534;6.722;2024-01-25T15:40:30;36.73;;;12.43;;
15331;SDS011;7766;51.534;6.722;2024-01-25T15:42:56;40.87;;;12.37;;
15331;SDS011;7766;51.534;6.722;2024-01-25T15:45:22;32.10;;;12.27;;
15331;SDS011;7766;51.534;6.722;2024-01-25T15:47:48;32.33;;;11.47;;
15331;SDS011;7766;51.534;6.722;2024-01-25T15:50:14;38.60;;;11.43;;
15331;SDS011;7766;51.534;6.722;2024-01-25T15:52:40;31.80;;;10.80;;
15331;SDS011;7766;51.534;6.722;2024-01-25T15:55:06;36.90;;;11.97;;
15331;SDS011;7766;51.534;6.722;2024-01-25T15:57:32;37.40;;;11.77;;
15331;SDS011;7766;51.534;6.722;2024-01-25T15:59:58;39.27;;;12.90;;
15331;SDS011;7766;51.534;6.722;2024-01-25T16:02:24;33.97;;;11.90;;
15331;SDS011;7766;51.534;6.722;2024-01-25T16:04:49;30.63;;;12.00;;
15331;SDS011;7766;51.534;6.722;2024-01-25T16:07:15;34.83;;;12.33;;
15331;SDS011;7766;51.534;6.722;2024-01-25T16:09:41;38.70;;;12.77;;
15331;SDS011;7766;51.534;6.722;2024-01-25T16:12:08;31.97;;;12.60;;
15331;SDS011;7766;51.534;6.722;2024-01-25T16:14:34;37.43;;;12.63;;
15331;SDS011;7766;51.534;6.722;2024-01-25T16:17:00;32.20;;;12.67;;
15331;SDS011;7766;51.534;6.722;2024-01-25T16:19:26;37.47;;;12.87;;
15331;SDS011;7766;51.534;6.722;2024-01-25T16:21:53;44.83;;;12.23;;
15331;SDS011;7766;51.534;6.722;2024-01-25T16:24:19;30.57;;;12.50;;
15331;SDS011;7766;51.534;6.722;2024-01-25T16:26:45;37.17;;;13.07;;
15331;SDS011;7766;51.534;6.722;2024-01-25T16:29:11;41.10;;;14.13;;
15331;SDS011;7766;51.534;6.722;2024-01-25T16:31:37;36.10;;;13.10;;
15331;SDS011;7766;51.534;6.722;2024-01-25T16:34:02;49.90;;;13.23;;
15331;SDS011;7766;51.534;6.722;2024-01-25T16:36:28;44.83;;;14.03;;
15331;SDS011;7766;51.534;6.722;2024-01-25T16:38:54;37.13;;;13.30;;
15331;SDS011;7766;51.534;6.722;2024-01-25T16:41:20;36.47;;;12.33;;
15331;SDS011;7766;51.534;6.722;2024-01-25T16:43:46;37.07;;;11.93;;
15331;SDS011;7766;51.534;6.722;2024-01-25T16:46:12;27.40;;;10.67;;
15331;SDS011;7766;51.534;6.722;2024-01-25T16:48:38;37.90;;;13.27;;
15331;SDS011;7766;51.534;6.722;2024-01-25T16:51:04;38.43;;;10.97;;
15331;SDS011;7766;51.534;6.722;2024-01-25T16:53:30;39.30;;;12.37;;
15331;SDS011;7766;51.534;6.722;2024-01-25T16:55:56;37.27;;;11.83;;
15331;SDS011;7766;51.534;6.722;2024-01-25T16:58:23;31.83;;;11.37;;
15331;SDS011;7766;51.534;6.722;2024-01-25T17:00:49;37.90;;;11.87;;
15331;SDS011;7766;51.534;6.722;2024-01-25T17:03:16;36.60;;;11.63;;
15331;SDS011;7766;51.534;6.722;2024-01-25T17:05:42;31.73;;;10.80;;
15331;SDS011;7766;51.534;6.722;2024-01-25T17:08:08;31.10;;;11.20;;
15331;SDS011;7766;51.534;6.722;2024-01-25T17:10:33;35.40;;;11.60;;
15331;SDS011;7766;51.534;6.722;2024-01-25T17:12:59;35.27;;;11.80;;
15331;SDS011;7766;51.534;6.722;2024-01-25T17:15:25;34.93;;;10.20;;
15331;SDS011;7766;51.534;6.722;2024-01-25T17:17:51;32.67;;;9.80;;
15331;SDS011;7766;51.534;6.722;2024-01-25T17:20:17;32.30;;;9.37;;
15331;SDS011;7766;51.534;6.722;2024-01-25T17:22:44;35.17;;;9.50;;
15331;SDS011;7766;51.534;6.722;2024-01-25T17:25:10;31.90;;;10.67;;
15331;SDS011;7766;51.534;6.722;2024-01-25T17:27:36;33.17;;;9.40;;
15331;SDS011;7766;51.534;6.722;2024-01-25T17:30:02;35.17;;;9.50;;
15331;SDS011;7766;51.534;6.722;2024-01-25T17:32:28;30.03;;;8.37;;
15331;SDS011;7766;51.534;6.722;2024-01-25T17:34:54;27.27;;;10.03;;
15331;SDS011;7766;51.534;6.722;2024-01-25T17:37:21;28.73;;;9.47;;
15331;SDS011;7766;51.534;6.722;2024-01-25T17:39:47;31.67;;;9.03;;
15331;SDS011;7766;51.534;6.722;2024-01-25T17:42:13;28.83;;;8.03;;
15331;SDS011;7766;51.534;6.722;2024-01-25T17:44:38;25.40;;;6.53;;
15331;SDS011;7766;51.534;6.722;2024-01-25T17:47:04;24.43;;;7.73;;
15331;SDS011;7766;51.534;6.722;2024-01-25T17:49:30;24.10;;;6.00;;
15331;SDS011;7766;51.534;6.722;2024-01-25T17:51:56;26.63;;;6.00;;
15331;SDS011;7766;51.534;6.722;2024-01-25T17:54:22;20.63;;;6.47;;
